Time;durP1;ratioP1;P1;durP2;ratioP2;P2;SDS_P1;SDS_P2;PMS_P1;PMS_P2;Temp;Humidity;BMP_temperature;BMP_pressure;BME280_temperature;BME280_humidity;BME280_pressure;Samples;Min_cycle;Max_cycle;Signal;HPM_P1;HPM_P2
2024/01/20 00:00:17;;;;;;;9.93;6.97;;;-4.80;99.90;;;-4.31;100.00;99184.75;5039675;28;20468;-80
2024/01/20 00:02:46;;;;;;;12.20;5.10;;;-4.80;99.90;;;-4.32;100.00;99186.47;5040021;28;20486;-80
2024/01/20 00:05:15;;;;;;;12.73;5.70;;;-4.70;99.90;;;-4.30;100.00;99183.81;5042238;28;20493;-80
2024/01/20 00:07:44;;;;;;;14.53;7.40;;;-4.80;99.90;;;-4.47;100.00;99186.28;5042737;28;20832;-80
2024/01/20 00:10:13;;;;;;;20.10;5.93;;;-4.80;99.90;;;-4.51;100.00;99179.69;5043650;28;20468;-80
2024/01/20 00:12:43;;;;;;;10.43;5.80;;;-4.80;99.90;;;-4.57;100.00;99185.84;5040222;28;20477;-79
2024/01/20 00:15:13;;;;;;;12.53;5.57;;;-4.90;99.90;;;-4.68;100.00;99185.47;5039908;28;20485;-80
2024/01/20 00:17:42;;;;;;;10.20;5.40;;;-4.90;99.90;;;-4.81;100.00;99186.88;5038439;28;20607;-80
2024/01/20 00:20:12;;;;;;;7.50;4.47;;;-4.90;99.90;;;-4.87;100.00;99182.88;5041706;28;20454;-80
2024/01/20 00:22:43;;;;;;;16.10;5.13;;;-4.90;99.90;;;-4.96;100.00;99167.94;5040492;28;20470;-80
2024/01/20 00:25:12;;;;;;;10.83;6.40;;;-5.00;99.90;;;-5.03;100.00;99169.06;5040139;28;20934;-79
2024/01/20 00:27:41;;;;;;;12.33;4.90;;;-5.20;99.90;;;-5.08;100.00;99178.66;5039469;28;20462;-80
2024/01/20 00:30:12;;;;;;;6.13;4.30;;;-5.20;99.90;;;-5.14;100.00;99181.44;5039066;28;21377;-81
2024/01/20 00:32:40;;;;;;;12.47;6.47;;;-5.20;99.90;;;-5.26;100.00;99184.47;5040480;28;20769;-80
2024/01/20 00:35:09;;;;;;;10.63;5.80;;;-5.30;99.90;;;-5.30;100.00;99188.84;5039550;28;20552;-80
2024/01/20 00:37:39;;;;;;;7.13;4.17;;;-5.40;99.90;;;-5.41;100.00;99193.53;5040599;28;20660;-80
2024/01/20 00:40:11;;;;;;;8.67;4.60;;;-5.50;99.90;;;-5.56;100.00;99198.41;5039038;28;20577;-80
2024/01/20 00:42:40;;;;;;;11.90;4.13;;;-5.80;99.90;;;-5.60;100.00;99200.25;5039074;28;20463;-80
2024/01/20 00:45:10;;;;;;;9.47;4.63;;;-5.70;99.90;;;-5.71;100.00;99193.00;5039841;28;20461;-80
2024/01/20 00:47:38;;;;;;;17.03;6.00;;;-5.80;99.90;;;-5.83;100.00;99198.53;5039841;28;20458;-80
2024/01/20 00:50:08;;;;;;;14.53;6.43;;;-6.00;99.90;;;-5.80;100.00;99203.56;5038755;28;20469;-80
2024/01/20 00:52:37;;;;;;;12.23;3.80;;;-6.00;99.90;;;-5.78;100.00;99216.22;5038863;28;20493;-80
2024/01/20 00:55:10;;;;;;;12.03;4.43;;;-5.90;99.90;;;-5.77;100.00;99208.53;5039965;28;20446;-80
2024/01/20 00:57:38;;;;;;;12.50;4.00;;;-5.90;99.90;;;-5.72;100.00;99215.97;5039799;28;20459;-80
2024/01/20 01:00:09;;;;;;;12.40;5.63;;;-5.90;99.90;;;-5.75;100.00;99216.94;5038506;28;20888;-80
2024/01/20 01:02:39;;;;;;;12.00;6.03;;;-6.00;99.90;;;-5.64;100.00;99212.28;5038337;28;20477;-80
2024/01/20 01:05:08;;;;;;;8.53;4.40;;;-6.00;99.90;;;-5.64;100.00;99214.81;5039077;28;20441;-80
2024/01/20 01:07:37;;;;;;;6.67;4.30;;;-6.10;99.90;;;-5.57;100.00;99217.13;5038358;28;20464;-80
2024/01/20 01:10:07;;;;;;;9.43;3.97;;;-5.80;99.90;;;-5.68;100.00;99210.72;5040097;28;20863;-80
2024/01/20 01:12:37;;;;;;;12.70;5.10;;;-5.80;99.90;;;-5.86;100.00;99213.97;5038455;28;20435;-80
2024/01/20 01:15:07;;;;;;;7.53;4.80;;;-6.00;99.90;;;-5.89;100.00;99221.72;5038240;28;20506;-80
2024/01/20 01:17:36;;;;;;;5.03;3.87;;;-6.00;99.90;;;-5.85;100.00;99230.06;5037774;28;20437;-80
2024/01/20 01:20:06;;;;;;;14.10;5.00;;;-6.00;99.90;;;-5.79;100.00;99245.09;5038381;28;20537;-80
2024/01/20 01:22:34;;;;;;;12.03;5.33;;;-6.20;99.90;;;-5.75;100.00;99247.47;5042300;28;20580;-80
2024/01/20 01:25:03;;;;;;;14.27;5.30;;;-6.10;99.90;;;-5.66;100.00;99252.22;5039496;28;21276;-80
2024/01/20 01:27:32;;;;;;;8.90;4.43;;;-5.90;99.90;;;-5.61;100.00;99242.72;5037320;28;20995;-80
2024/01/20 01:30:02;;;;;;;7.63;4.50;;;-5.90;99.90;;;-5.65;100.00;99238.63;5036967;28;20805;-80
2024/01/20 01:32:31;;;;;;;12.03;4.83;;;-5.90;99.90;;;-5.77;100.00;99244.19;5039473;28;20491;-80
2024/01/20 01:34:59;;;;;;;9.00;4.03;;;-5.90;99.90;;;-5.79;100.00;99240.00;5037206;28;20437;-80
2024/01/20 01:37:29;;;;;;;8.87;4.67;;;-5.90;99.90;;;-5.75;100.00;99239.00;5036850;28;20551;-80
2024/01/20 01:39:57;;;;;;;14.97;4.90;;;-6.00;99.90;;;-5.77;100.00;99239.09;5038535;28;20446;-80
2024/01/20 01:42:26;;;;;;;6.50;3.83;;;-5.90;99.90;;;-5.88;100.00;99248.03;5037543;28;20874;-80
2024/01/20 01:44:55;;;;;;;5.53;4.40;;;-5.90;99.90;;;-6.02;100.00;99251.06;5038084;28;20956;-80
2024/01/20 01:47:25;;;;;;;8.57;4.77;;;-6.00;99.90;;;-6.11;100.00;99254.75;5036067;28;20444;-80
2024/01/20 01:49:54;;;;;;;7.30;4.13;;;-6.20;99.90;;;-6.15;100.00;99244.75;5037090;28;21216;-80
2024/01/20 01:52:24;;;;;;;6.13;3.93;;;-6.20;99.90;;;-6.25;100.00;99243.41;5037705;28;20534;-80
2024/01/20 01:54:54;;;;;;;9.87;4.20;;;-6.30;99.90;;;-6.37;100.00;99248.91;5039254;28;20436;-80
2024/01/20 01:57:24;;;;;;;8.90;4.20;;;-6.40;99.90;;;-6.69;100.00;99253.38;5039341;28;20816;-80
2024/01/20 01:59:53;;;;;;;6.47;4.50;;;-6.90;99.90;;;-6.90;100.00;99271.84;5034298;28;21032;-81
2024/01/20 02:02:24;;;;;;;5.00;3.93;;;-7.10;99.90;;;-6.83;100.00;99277.56;5036505;28;20918;-80
2024/01/20 02:04:52;;;;;;;5.20;4.10;;;-7.00;99.90;;;-6.80;100.00;99277.47;5037954;28;20443;-80
2024/01/20 02:07:22;;;;;;;7.77;4.07;;;-7.00;99.90;;;-6.78;100.00;99279.09;5038548;28;20464;-81
2024/01/20 02:09:50;;;;;;;4.50;3.50;;;-7.10;99.90;;;-6.79;100.00;99269.81;5038645;28;20493;-81
2024/01/20 02:12:20;;;;;;;10.20;5.40;;;-7.20;99.90;;;-6.72;100.00;99268.72;5035404;28;20468;-80
2024/01/20 02:14:51;;;;;;;7.40;4.60;;;-7.00;99.90;;;-6.75;100.00;99271.38;5036617;28;20443;-80
2024/01/20 02:17:19;;;;;;;4.53;3.20;;;-7.00;99.90;;;-6.75;100.00;99268.84;5036683;28;20570;-80
2024/01/20 02:19:49;;;;;;;7.83;3.77;;;-7.10;99.90;;;-6.81;100.00;99268.22;5040996;28;20465;-81
2024/01/20 02:22:19;;;;;;;11.70;4.40;;;-7.20;99.90;;;-6.76;100.00;99264.63;5036599;28;20554;-81
2024/01/20 02:24:50;;;;;;;5.80;3.00;;;-7.20;99.90;;;-6.78;100.00;99266.41;5036422;28;21000;-80
2024/01/20 02:27:20;;;;;;;5.43;3.23;;;-7.20;99.90;;;-6.74;100.00;99269.66;5035898;28;20571;-80
2024/01/20 02:29:49;;;;;;;4.70;3.47;;;-7.00;99.90;;;-6.83;100.00;99269.94;5036162;28;20781;-81
2024/01/20 02:32:17;;;;;;;11.27;3.83;;;-7.00;99.90;;;-6.87;100.00;99271.75;5036801;28;21070;-80
2024/01/20 02:34:46;;;;;;;9.37;5.07;;;-7.20;99.90;;;-6.89;100.00;99278.63;5035732;28;20554;-81
2024/01/20 02:37:14;;;;;;;8.37;4.40;;;-7.30;99.90;;;-6.88;100.00;99280.28;5037307;28;21172;-81
2024/01/20 02:39:45;;;;;;;5.37;4.00;;;-7.20;99.90;;;-6.93;100.00;99282.13;5034860;28;20467;-81
2024/01/20 02:42:13;;;;;;;7.17;4.20;;;-7.30;99.90;;;-6.98;100.00;99273.84;5036810;28;20552;-81
2024/01/20 02:44:43;;;;;;;5.47;3.27;;;-7.40;99.90;;;-7.01;100.00;99271.34;5036516;28;20446;-81
2024/01/20 02:47:12;;;;;;;5.40;3.60;;;-7.50;99.90;;;-7.02;100.00;99272.25;5037312;28;21008;-80
2024/01/20 02:49:40;;;;;;;9.27;2.97;;;-7.60;99.90;;;-7.00;100.00;99280.66;5035342;28;20839;-80
2024/01/20 02:52:09;;;;;;;5.17;3.10;;;-7.60;99.90;;;-7.14;100.00;99285.31;5035799;28;20465;-80
2024/01/20 02:54:38;;;;;;;3.90;3.20;;;-7.70;99.90;;;-7.12;100.00;99275.97;5038442;28;20464;-81
2024/01/20 02:57:08;;;;;;;4.83;2.63;;;-7.60;99.90;;;-7.11;100.00;99282.69;5038287;28;20450;-80
2024/01/20 02:59:36;;;;;;;6.87;3.10;;;-7.70;99.90;;;-7.11;100.00;99287.78;5036079;28;21248;-81
2024/01/20 03:02:05;;;;;;;9.87;4.17;;;-7.60;99.90;;;-7.24;100.00;99283.94;5037137;28;20505;-80
2024/01/20 03:04:34;;;;;;;7.53;3.93;;;-7.80;99.90;;;-7.18;100.00;99281.22;5038980;28;20465;-80
2024/01/20 03:07:03;;;;;;;3.20;2.83;;;-7.70;99.90;;;-7.19;100.00;99289.75;5039561;28;20453;-80
2024/01/20 03:09:31;;;;;;;7.43;3.60;;;-7.70;99.90;;;-7.19;100.00;99292.28;5037937;28;20437;-81
2024/01/20 03:12:01;;;;;;;6.73;3.67;;;-7.60;99.90;;;-7.21;100.00;99287.22;5036417;28;21041;-80
2024/01/20 03:14:31;;;;;;;5.87;4.27;;;-7.70;99.90;;;-7.31;100.00;99285.00;5034665;28;20886;-80
2024/01/20 03:17:00;;;;;;;7.80;4.03;;;-7.70;99.90;;;-7.31;100.00;99288.38;5037078;28;20996;-81
2024/01/20 03:19:29;;;;;;;6.60;3.57;;;-7.70;99.90;;;-7.32;100.00;99289.25;5040728;28;20470;-81
2024/01/20 03:21:57;;;;;;;16.23;3.67;;;-7.60;99.90;;;-7.38;100.00;99294.53;5040769;28;20475;-81
2024/01/20 03:24:26;;;;;;;5.40;3.00;;;-7.70;99.90;;;-7.37;100.00;99295.34;5042936;28;20484;-80
2024/01/20 03:26:56;;;;;;;4.03;3.17;;;-7.70;99.90;;;-7.46;100.00;99299.00;5039876;28;20748;-80
2024/01/20 03:29:27;;;;;;;4.50;3.33;;;-7.80;99.90;;;-7.56;100.00;99300.13;5039247;28;20480;-81
2024/01/20 03:31:57;;;;;;;3.07;2.77;;;-8.00;99.90;;;-7.59;100.00;99301.94;5040647;28;20513;-79
2024/01/20 03:34:25;;;;;;;6.80;3.50;;;-8.10;99.90;;;-7.55;100.00;99316.19;5041282;28;20439;-81
2024/01/20 03:36:54;;;;;;;4.30;2.60;;;-8.00;99.90;;;-7.61;100.00;99312.13;5039259;28;20466;-81
2024/01/20 03:39:22;;;;;;;5.40;3.07;;;-7.90;99.90;;;-7.69;100.00;99314.88;5039351;28;20450;-81
2024/01/20 03:41:51;;;;;;;6.50;3.50;;;-8.20;99.90;;;-7.68;100.00;99308.94;5040518;28;20482;-81
2024/01/20 03:44:20;;;;;;;3.50;2.30;;;-8.00;99.90;;;-7.72;100.00;99312.44;5039693;28;20502;-80
2024/01/20 03:46:49;;;;;;;2.80;2.60;;;-8.00;99.90;;;-7.74;100.00;99309.09;5041226;28;20466;-81
2024/01/20 03:49:18;;;;;;;7.53;3.40;;;-8.10;99.90;;;-7.79;100.00;99313.50;5039434;28;20439;-81
2024/01/20 03:51:47;;;;;;;3.67;2.37;;;-8.30;99.90;;;-7.82;100.00;99311.03;5040723;28;20468;-81
2024/01/20 03:54:16;;;;;;;2.47;2.27;;;-8.30;99.90;;;-7.87;100.00;99310.31;5038830;28;20474;-80
2024/01/20 03:56:45;;;;;;;3.20;3.00;;;-8.40;99.90;;;-7.84;100.00;99319.53;5037965;28;20457;-80
2024/01/20 03:59:13;;;;;;;7.10;3.63;;;-8.40;99.90;;;-7.84;100.00;99319.53;5040217;28;20431;-80
2024/01/20 04:01:42;;;;;;;7.00;3.60;;;-8.40;99.90;;;-7.83;100.00;99319.50;5037462;28;20471;-81
2024/01/20 04:04:10;;;;;;;6.87;3.40;;;-8.40;99.90;;;-7.86;100.00;99322.13;5039802;28;20783;-81
2024/01/20 04:06:40;;;;;;;3.57;2.70;;;-8.40;99.90;;;-7.90;100.00;99325.63;5034224;28;20470;-78
2024/01/20 04:09:09;;;;;;;6.00;3.00;;;-8.40;99.90;;;-7.95;100.00;99327.47;5034840;28;21016;-80
2024/01/20 04:11:38;;;;;;;8.50;3.10;;;-8.50;99.90;;;-7.96;100.00;99335.13;5038218;28;20475;-81
2024/01/20 04:14:06;;;;;;;3.67;2.58;;;-8.50;99.90;;;-7.97;100.00;99334.28;5038200;28;20464;-81
2024/01/20 04:16:35;;;;;;;5.90;2.93;;;-8.50;99.90;;;-7.97;100.00;99341.06;5036001;28;20530;-81
2024/01/20 04:19:03;;;;;;;5.67;3.77;;;-8.50;99.90;;;-8.03;100.00;99338.69;5036429;28;20468;-81
2024/01/20 04:21:32;;;;;;;2.70;2.50;;;-8.50;99.90;;;-8.09;100.00;99337.16;5041188;28;20469;-81
2024/01/20 04:24:02;;;;;;;3.70;2.70;;;-8.70;99.90;;;-8.09;100.00;99334.63;5038503;28;20235;-80
2024/01/20 04:26:30;;;;;;;10.50;2.13;;;-8.60;99.90;;;-8.21;100.00;99340.84;5039553;28;20466;-81
2024/01/20 04:28:59;;;;;;;4.60;3.10;;;-8.70;99.90;;;-8.23;100.00;99331.59;5038030;28;20471;-80
2024/01/20 04:31:29;;;;;;;5.03;2.40;;;-8.80;99.90;;;-8.25;100.00;99324.03;5037593;28;20477;-80
2024/01/20 04:33:57;;;;;;;4.10;2.60;;;-8.80;99.90;;;-8.31;100.00;99329.28;5041155;28;20442;-81
2024/01/20 04:36:26;;;;;;;4.60;2.57;;;-8.80;99.90;;;-8.31;100.00;99338.59;5038427;28;20472;-81
2024/01/20 04:38:55;;;;;;;5.53;2.03;;;-8.80;99.90;;;-8.34;100.00;99338.69;5038587;28;20459;-80
2024/01/20 04:41:25;;;;;;;3.50;2.40;;;-8.80;99.90;;;-8.42;100.00;99345.63;5037472;28;20480;-80
2024/01/20 04:43:53;;;;;;;2.63;2.10;;;-8.90;99.90;;;-8.53;100.00;99340.00;5038175;28;20527;-81
2024/01/20 04:46:22;;;;;;;4.10;3.00;;;-9.10;99.90;;;-8.51;100.00;99335.72;5040522;28;20220;-81
2024/01/20 04:48:50;;;;;;;2.27;2.13;;;-9.10;99.90;;;-8.53;100.00;99330.69;5039735;28;20459;-80
2024/01/20 04:51:19;;;;;;;6.75;2.90;;;-9.10;99.90;;;-8.52;100.00;99339.97;5039524;28;20441;-81
2024/01/20 04:53:52;;;;;;;4.80;2.53;;;-9.10;99.90;;;-8.55;100.00;99340.03;5038542;28;20211;-82
2024/01/20 04:56:22;;;;;;;3.97;3.13;;;-9.20;99.90;;;-8.55;100.00;99334.13;5039445;28;20466;-82
2024/01/20 04:58:53;;;;;;;3.50;2.20;;;-9.10;99.90;;;-8.56;100.00;99345.97;5041226;28;20204;-81
2024/01/20 05:01:22;;;;;;;3.77;2.80;;;-9.00;99.90;;;-8.59;100.00;99347.75;5041383;28;20465;-80
2024/01/20 05:03:51;;;;;;;11.25;3.05;;;-9.20;99.90;;;-8.63;100.00;99341.91;5036980;28;20594;-80
2024/01/20 05:06:20;;;;;;;7.30;2.63;;;-9.20;99.90;;;-8.73;100.00;99355.69;5037770;28;20678;-80
2024/01/20 05:08:48;;;;;;;3.50;2.53;;;-9.40;99.90;;;-8.77;100.00;99352.38;5037951;28;20210;-80
2024/01/20 05:11:17;;;;;;;3.40;2.58;;;-9.40;99.90;;;-8.79;100.00;99361.72;5037163;28;20638;-80
2024/01/20 05:13:45;;;;;;;3.75;2.25;;;-9.40;99.90;;;-8.79;100.00;99361.72;5036677;28;20207;-80
2024/01/20 05:16:15;;;;;;;2.70;2.47;;;-9.40;99.90;;;-8.79;100.00;99360.91;5033701;28;20212;-76
2024/01/20 05:18:44;;;;;;;2.22;1.90;;;-9.30;99.90;;;-8.86;100.00;99365.28;5033455;28;20730;-80
2024/01/20 05:21:14;;;;;;;4.10;3.10;;;-9.50;99.90;;;-9.02;100.00;99368.19;5034109;28;20226;-83
2024/01/20 05:23:42;;;;;;;3.45;2.38;;;-9.60;99.90;;;-9.10;100.00;99367.50;5037731;28;20229;-81
2024/01/20 05:26:11;;;;;;;4.40;2.15;;;-9.80;99.90;;;-9.10;100.00;99375.94;5036332;28;20199;-80
2024/01/20 05:28:39;;;;;;;4.35;2.17;;;-9.70;99.90;;;-9.02;100.00;99379.13;5036280;28;20670;-81
2024/01/20 05:31:08;;;;;;;8.73;2.47;;;-9.60;99.90;;;-8.98;100.00;99375.66;5037098;28;20203;-78
2024/01/20 05:33:38;;;;;;;3.05;2.15;;;-9.60;99.90;;;-8.95;100.00;99383.19;5041187;28;20208;-78
2024/01/20 05:36:11;;;;;;;2.95;2.10;;;-9.50;99.90;;;-8.97;100.00;99377.34;5040833;28;20202;-79
2024/01/20 05:38:39;;;;;;;1.77;1.67;;;-9.50;99.90;;;-8.97;100.00;99381.56;5043096;28;20192;-78
2024/01/20 05:41:08;;;;;;;3.97;2.00;;;-9.60;99.90;;;-9.02;100.00;99389.25;5040519;28;21102;-79
2024/01/20 05:43:38;;;;;;;2.60;2.40;;;-9.60;99.90;;;-9.01;100.00;99393.47;5042601;28;20269;-79
2024/01/20 05:46:07;;;;;;;1.90;1.80;;;-9.60;99.90;;;-9.00;100.00;99412.03;5042878;28;20207;-79
2024/01/20 05:48:37;;;;;;;5.03;2.58;;;-9.60;99.90;;;-9.04;100.00;99406.19;5044869;28;20577;-78
2024/01/20 05:51:06;;;;;;;2.15;1.92;;;-9.50;99.90;;;-9.03;100.00;99401.97;5044241;28;20203;-79
2024/01/20 05:53:35;;;;;;;2.17;1.98;;;-9.60;99.90;;;-9.05;100.00;99401.16;5042538;28;20225;-79
2024/01/20 05:56:04;;;;;;;4.75;2.40;;;-9.60;99.90;;;-9.07;100.00;99402.91;5038390;28;20207;-78
2024/01/20 05:58:32;;;;;;;3.83;2.60;;;-9.60;99.90;;;-9.09;100.00;99407.97;5041292;28;20229;-78
2024/01/20 06:01:01;;;;;;;2.47;1.77;;;-9.70;99.90;;;-9.13;100.00;99414.00;5040698;28;20207;-78
2024/01/20 06:03:30;;;;;;;19.98;1.88;;;-9.70;99.90;;;-9.11;100.00;99414.78;5040917;28;20300;-78
2024/01/20 06:06:00;;;;;;;4.68;2.53;;;-9.70;99.90;;;-9.10;100.00;99418.16;5039892;28;20734;-78
2024/01/20 06:08:29;;;;;;;5.57;3.28;;;-9.70;99.90;;;-9.10;100.00;99424.06;5042525;28;20207;-78
2024/01/20 06:10:57;;;;;;;2.95;1.60;;;-9.70;99.90;;;-9.27;100.00;99424.41;5040835;28;20589;-78
2024/01/20 06:13:26;;;;;;;3.10;2.80;;;-9.90;99.90;;;-9.29;100.00;99421.06;5040920;28;20206;-78
2024/01/20 06:15:55;;;;;;;7.80;2.72;;;-9.90;99.90;;;-9.34;100.00;99422.03;5039507;28;20204;-78
2024/01/20 06:18:23;;;;;;;8.50;3.13;;;-9.90;99.90;;;-9.47;100.00;99426.47;5039803;28;20447;-78
2024/01/20 06:20:53;;;;;;;3.00;2.70;;;-10.10;99.90;;;-9.41;100.00;99428.91;5040669;28;20219;-78
2024/01/20 06:23:23;;;;;;;3.15;2.25;;;-10.00;99.90;;;-9.36;100.00;99423.75;5041752;28;20214;-79
2024/01/20 06:25:51;;;;;;;3.25;2.20;;;-10.00;99.90;;;-9.43;100.00;99428.09;5041334;28;20238;-78
2024/01/20 06:28:23;;;;;;;2.42;2.17;;;-10.00;99.90;;;-9.42;100.00;99428.94;5040389;28;20684;-79
2024/01/20 06:30:51;;;;;;;2.30;1.90;;;-9.90;99.90;;;-9.41;100.00;99439.03;5043534;28;20219;-78
2024/01/20 06:33:20;;;;;;;4.65;2.25;;;-10.00;99.90;;;-9.41;100.00;99440.72;5042364;28;20611;-78
2024/01/20 06:35:50;;;;;;;5.30;2.35;;;-10.00;99.90;;;-9.42;100.00;99450.03;5044885;28;21059;-79
2024/01/20 06:38:18;;;;;;;3.15;2.60;;;-10.00;99.90;;;-9.48;100.00;99456.91;5044087;28;20616;-78
2024/01/20 06:40:48;;;;;;;9.90;3.40;;;-10.10;99.90;;;-9.46;100.00;99462.75;5043287;28;20210;-79
2024/01/20 06:43:17;;;;;;;2.50;2.10;;;-10.00;99.90;;;-9.49;100.00;99460.28;5042281;28;20464;-78
2024/01/20 06:45:46;;;;;;;2.72;1.90;;;-10.10;99.90;;;-9.50;100.00;99467.03;5039350;28;20232;-78
2024/01/20 06:48:14;;;;;;;4.53;2.42;;;-10.10;99.90;;;-9.62;100.00;99463.91;5038611;28;20322;-78
2024/01/20 06:50:44;;;;;;;3.22;2.50;;;-10.20;99.90;;;-9.63;100.00;99457.16;5041857;28;20288;-79
2024/01/20 06:53:12;;;;;;;5.70;2.80;;;-10.20;99.90;;;-9.62;100.00;99462.22;5040889;28;20233;-79
2024/01/20 06:55:41;;;;;;;3.92;1.88;;;-10.20;99.90;;;-9.63;100.00;99464.75;5042513;28;20207;-78
2024/01/20 06:58:11;;;;;;;4.32;2.20;;;-10.20;99.90;;;-9.60;100.00;99465.53;5040414;28;20206;-78
2024/01/20 07:00:39;;;;;;;5.32;2.33;;;-10.20;99.90;;;-9.73;100.00;99470.00;5040989;28;20554;-79
2024/01/20 07:03:08;;;;;;;4.43;2.10;;;-10.30;99.90;;;-9.72;100.00;99474.16;5037702;28;20671;-79
2024/01/20 07:05:36;;;;;;;3.25;2.38;;;-10.30;99.90;;;-9.65;100.00;99474.94;5040818;28;20331;-79
2024/01/20 07:08:06;;;;;;;2.95;2.53;;;-10.20;99.90;;;-9.68;100.00;99467.34;5039451;28;20205;-79
2024/01/20 07:10:35;;;;;;;3.45;1.98;;;-10.20;99.90;;;-9.87;100.00;99479.50;5039711;28;20681;-79
2024/01/20 07:13:03;;;;;;;8.27;3.42;;;-10.50;99.90;;;-10.04;100.00;99484.00;5037660;28;20222;-79
2024/01/20 07:15:33;;;;;;;2.40;2.20;;;-10.70;99.90;;;-10.12;100.00;99493.41;5039338;28;20198;-79
2024/01/20 07:18:03;;;;;;;4.75;2.63;;;-10.80;99.90;;;-10.07;100.00;99494.19;5041029;28;20259;-79
2024/01/20 07:20:33;;;;;;;8.57;3.05;;;-10.60;99.90;;;-9.97;100.00;99494.84;5039883;28;20270;-79
2024/01/20 07:23:01;;;;;;;3.95;1.98;;;-10.40;99.90;;;-9.95;100.00;99491.44;5041368;28;20684;-79
2024/01/20 07:25:32;;;;;;;2.67;1.65;;;-10.50;99.90;;;-9.89;100.00;99503.97;5039262;28;20938;-79
2024/01/20 07:28:01;;;;;;;3.00;1.90;;;-10.30;99.90;;;-9.89;100.00;99500.63;5040826;28;20205;-79
2024/01/20 07:30:33;;;;;;;3.35;1.92;;;-10.40;99.90;;;-9.91;100.00;99494.75;5041210;28;20752;-80
2024/01/20 07:33:03;;;;;;;1.92;1.77;;;-10.40;99.90;;;-9.94;100.00;99490.59;5039454;28;20204;-79
2024/01/20 07:35:32;;;;;;;4.72;2.05;;;-10.50;99.90;;;-9.87;100.00;99502.28;5040367;28;20211;-79
2024/01/20 07:38:00;;;;;;;2.67;2.15;;;-10.50;99.90;;;-9.86;100.00;99503.13;5038892;28;20584;-79
2024/01/20 07:40:29;;;;;;;3.28;1.80;;;-10.50;99.90;;;-9.86;100.00;99503.94;5038821;28;20701;-79
2024/01/20 07:42:57;;;;;;;1.92;1.67;;;-10.40;99.90;;;-9.89;100.00;99506.50;5041010;28;20206;-78
2024/01/20 07:45:26;;;;;;;3.92;2.13;;;-10.40;99.90;;;-9.95;100.00;99504.09;5038808;28;20240;-79
2024/01/20 07:47:57;;;;;;;1.83;1.73;;;-10.50;99.90;;;-9.92;100.00;99503.19;5041708;28;20738;-79
2024/01/20 07:50:25;;;;;;;4.57;2.20;;;-10.50;99.90;;;-10.03;100.00;99516.00;5041983;28;20207;-78
2024/01/20 07:52:54;;;;;;;2.13;1.90;;;-10.60;99.90;;;-10.14;100.00;99514.56;5042471;28;20704;-79
2024/01/20 07:55:24;;;;;;;2.75;1.83;;;-10.70;99.90;;;-10.12;100.00;99511.09;5040624;28;20624;-78
2024/01/20 07:57:53;;;;;;;2.88;2.20;;;-10.70;99.90;;;-10.11;100.00;99512.78;5040116;28;20265;-78
2024/01/20 08:00:21;;;;;;;1.85;1.75;;;-10.70;99.90;;;-10.17;100.00;99519.66;5040809;28;20212;-79
2024/01/20 08:02:50;;;;;;;3.67;1.95;;;-10.80;99.90;;;-10.16;100.00;99519.63;5040521;28;20222;-79
2024/01/20 08:05:20;;;;;;;4.57;1.75;;;-10.80;99.90;;;-10.18;100.00;99531.47;5045483;28;20632;-79
2024/01/20 08:07:49;;;;;;;1.75;1.65;;;-10.80;99.90;;;-10.29;100.00;99533.31;5045304;28;20210;-79
2024/01/20 08:10:17;;;;;;;2.83;2.60;;;-10.90;99.90;;;-10.31;100.00;99540.09;5044744;28;20222;-79
2024/01/20 08:12:46;;;;;;;2.22;1.67;;;-10.90;99.90;;;-10.31;100.00;99535.03;5043959;28;20199;-79
2024/01/20 08:15:15;;;;;;;4.20;2.20;;;-10.90;99.90;;;-10.30;100.00;99542.56;5043818;28;20219;-79
2024/01/20 08:17:44;;;;;;;2.35;2.15;;;-10.90;99.90;;;-10.31;100.00;99545.13;5043975;28;20230;-78
2024/01/20 08:20:13;;;;;;;6.78;2.95;;;-10.70;99.90;;;-10.32;100.00;99544.31;5045779;28;20620;-78
2024/01/20 08:22:43;;;;;;;2.70;1.95;;;-10.90;99.90;;;-10.31;100.00;99550.19;5045953;28;20203;-79
2024/01/20 08:25:13;;;;;;;4.07;2.35;;;-10.90;99.90;;;-10.31;100.00;99540.91;5042692;28;20731;-79
2024/01/20 08:27:41;;;;;;;1.95;1.70;;;-10.90;99.90;;;-10.16;100.00;99544.06;5042949;28;20206;-79
2024/01/20 08:30:12;;;;;;;3.65;2.80;;;-10.80;99.90;;;-10.18;100.00;99551.69;5044177;28;20207;-78
2024/01/20 08:32:41;;;;;;;1.80;1.70;;;-10.80;99.90;;;-10.14;100.00;99549.94;5043588;28;20697;-79
2024/01/20 08:35:11;;;;;;;3.13;2.45;;;-10.80;99.90;;;-10.04;100.00;99559.88;5041022;28;20285;-79
2024/01/20 08:37:41;;;;;;;5.57;3.15;;;-10.60;99.90;;;-10.02;100.00;99553.09;5042999;28;20225;-79
2024/01/20 08:40:13;;;;;;;3.10;2.78;;;-10.60;99.90;;;-10.10;100.00;99561.66;5042214;28;20540;-79
2024/01/20 08:42:42;;;;;;;2.35;2.15;;;-10.70;99.90;;;-10.16;100.00;99552.47;5044764;28;20199;-78
2024/01/20 08:45:11;;;;;;;1.83;1.70;;;-10.80;99.90;;;-10.14;100.00;99562.59;5042822;28;20219;-79
2024/01/20 08:47:40;;;;;;;3.95;2.10;;;-10.70;99.90;;;-10.09;100.00;99560.78;5043510;28;20202;-79
2024/01/20 08:50:10;;;;;;;4.53;2.00;;;-10.70;99.90;;;-9.97;100.00;99569.03;5044476;28;20206;-79
2024/01/20 08:52:39;;;;;;;2.85;2.40;;;-10.60;99.90;;;-10.01;100.00;99574.16;5041272;28;20650;-78
2024/01/20 08:55:11;;;;;;;3.75;1.98;;;-10.60;99.90;;;-10.05;100.00;99573.38;5043951;28;20218;-79
2024/01/20 08:57:39;;;;;;;1.67;1.58;;;-10.60;99.90;;;-9.97;100.00;99571.56;5040689;28;20232;-79
2024/01/20 09:00:12;;;;;;;5.07;2.85;;;-10.60;99.90;;;-9.96;100.00;99560.56;5042628;28;20201;-78
2024/01/20 09:02:41;;;;;;;3.28;2.40;;;-10.50;99.90;;;-9.94;100.00;99558.03;5045073;28;20794;-79
2024/01/20 09:05:10;;;;;;;2.75;2.08;;;-10.50;99.90;;;-9.95;100.00;99549.59;5044764;28;20214;-78
2024/01/20 09:07:39;;;;;;;2.75;2.00;;;-10.50;99.90;;;-9.87;100.00;99549.50;5045775;28;20230;-78
2024/01/20 09:10:10;;;;;;;2.42;2.20;;;-10.50;99.90;;;-9.86;100.00;99552.00;5045982;28;20569;-77
2024/01/20 09:12:38;;;;;;;4.72;1.80;;;-10.50;99.90;;;-9.83;100.00;99557.00;5043384;28;20210;-76
2024/01/20 09:15:10;;;;;;;1.70;1.60;;;-10.40;99.90;;;-9.75;100.00;99562.78;5044043;28;20701;-77
2024/01/20 09:17:38;;;;;;;4.40;3.17;;;-10.40;99.90;;;-9.72;100.00;99557.66;5045022;28;20210;-77
2024/01/20 09:20:09;;;;;;;1.95;1.85;;;-10.30;99.90;;;-9.66;100.00;99566.03;5042651;28;20245;-79
2024/01/20 09:22:38;;;;;;;2.85;1.85;;;-10.30;99.90;;;-9.66;100.00;99560.97;5042581;28;20214;-77
2024/01/20 09:25:08;;;;;;;2.70;1.90;;;-10.20;99.90;;;-9.62;100.00;99567.66;5042310;28;20597;-79
2024/01/20 09:27:37;;;;;;;3.53;2.13;;;-10.20;99.90;;;-9.61;100.00;99566.78;5041235;28;20633;-79
2024/01/20 09:30:08;;;;;;;2.55;2.05;;;-10.20;99.90;;;-9.58;100.00;99564.22;5040571;28;20210;-79
2024/01/20 09:32:37;;;;;;;4.45;3.35;;;-10.20;99.90;;;-9.58;100.00;99570.09;5041827;28;20202;-78
2024/01/20 09:35:06;;;;;;;2.10;1.90;;;-10.20;99.90;;;-9.51;100.00;99568.31;5041810;28;20230;-79
2024/01/20 09:37:36;;;;;;;4.38;3.30;;;-10.10;99.90;;;-9.35;100.00;99578.13;5042905;28;20612;-78
2024/01/20 09:40:07;;;;;;;6.15;2.58;;;-9.90;99.90;;;-9.34;100.00;99573.91;5039775;28;20300;-78
2024/01/20 09:42:37;;;;;;;3.58;2.75;;;-9.90;99.90;;;-9.35;100.00;99562.94;5042616;28;20209;-79
2024/01/20 09:45:09;;;;;;;2.88;2.65;;;-9.90;99.90;;;-9.30;100.00;99566.22;5039619;28;20200;-79
2024/01/20 09:47:37;;;;;;;6.05;3.60;;;-9.90;99.90;;;-9.23;100.00;99556.81;5042983;28;20313;-79
2024/01/20 09:50:07;;;;;;;9.77;2.70;;;-9.80;99.90;;;-9.15;100.00;99555.00;5042830;28;20292;-79
2024/01/20 09:52:56;;;;;;;3.17;2.30;;;-9.70;99.90;;;-9.11;100.00;99551.53;5045128;28;20211;-78
2024/01/20 09:55:26;;;;;;;4.35;2.83;;;-9.60;99.90;;;-9.09;100.00;99554.06;5044919;28;20215;-78
2024/01/20 09:57:58;;;;;;;4.05;2.85;;;-9.70;99.90;;;-8.99;100.00;99556.38;5043300;28;20291;-78
2024/01/20 10:00:26;;;;;;;3.92;2.53;;;-9.60;99.90;;;-8.95;100.00;99560.50;5044701;28;20265;-79
2024/01/20 10:02:56;;;;;;;3.30;3.00;;;-9.50;99.90;;;-8.95;100.00;99557.13;5038855;28;20213;-79
2024/01/20 10:05:25;;;;;;;2.42;1.65;;;-9.60;99.90;;;-8.96;100.00;99555.50;5041684;28;20724;-79
2024/01/20 10:07:54;;;;;;;3.53;2.75;;;-9.50;99.90;;;-8.93;100.00;99555.41;5042475;28;20238;-79
2024/01/20 10:10:23;;;;;;;8.55;3.10;;;-9.50;99.90;;;-8.78;100.00;99550.88;5042688;28;20202;-79
2024/01/20 10:12:53;;;;;;;3.13;2.90;;;-9.30;99.90;;;-8.71;100.00;99544.81;5044712;28;20198;-78
2024/01/20 10:15:26;;;;;;;4.18;2.90;;;-9.30;99.90;;;-8.66;100.00;99544.72;5041858;28;20230;-79